TimeCDT,TemperatureF,Dew PointF,Humidity,Sea Level PressureIn,VisibilityMPH,Wind Direction,Wind SpeedMPH,Gust SpeedMPH,PrecipitationIn,Events,Conditions,WindDirDegrees,DateUTC
12:56 AM,55.9,50.0,80,30.02,10.0,SE,6.9,-,N/A,,Clear,130,2013-04-23 05:56:00
1:56 AM,55.9,50.0,80,30.01,10.0,SE,5.8,-,N/A,,Clear,130,2013-04-23 06:56:00
2:56 AM,55.9,50.9,83,30.01,10.0,SE,4.6,-,N/A,,Clear,140,2013-04-23 07:56:00
3:56 AM,54.9,50.9,86,29.99,10.0,SSE,6.9,-,N/A,,Clear,150,2013-04-23 08:56:00
4:56 AM,54.0,50.9,89,29.99,10.0,SSE,6.9,-,N/A,,Clear,160,2013-04-23 09:56:00
5:56 AM,55.9,52.9,89,29.98,10.0,South,8.1,-,N/A,,Clear,170,2013-04-23 10:56:00
6:56 AM,59.0,55.9,90,29.97,10.0,SSE,13.8,-,N/A,,Clear,160,2013-04-23 11:56:00
7:56 AM,61.0,56.8,86,29.97,10.0,South,18.4,-,N/A,,Clear,180,2013-04-23 12:56:00
8:42 AM,62.6,59.0,88,29.99,10.0,SSW,18.4,-,N/A,,Mostly Cloudy,200,2013-04-23 13:42:00
8:56 AM,63.9,59.0,84,30.00,10.0,South,19.6,-,N/A,,Mostly Cloudy,190,2013-04-23 13:56:00
9:33 AM,64.4,59.0,83,29.99,10.0,SSW,20.7,-,N/A,,Scattered Clouds,200,2013-04-23 14:33:00
9:56 AM,68.9,59.9,73,30.00,10.0,SSW,23.0,26.5,N/A,,Mostly Cloudy,200,2013-04-23 14:56:00
10:56 AM,70.9,61.0,71,29.97,10.0,South,27.6,-,N/A,,Scattered Clouds,190,2013-04-23 15:56:00
11:56 AM,72.9,59.9,64,29.95,10.0,South,32.2,38.0,N/A,,Mostly Cloudy,190,2013-04-23 16:56:00
12:56 PM,74.8,59.9,60,29.94,10.0,South,27.6,35.7,N/A,,Partly Cloudy,190,2013-04-23 17:56:00
1:56 PM,74.8,59.9,60,29.92,10.0,SSW,31.1,36.8,N/A,,Mostly Cloudy,200,2013-04-23 18:56:00
2:56 PM,75.9,59.9,57,29.91,10.0,SSW,23.0,-,N/A,,Mostly Cloudy,200,2013-04-23 19:56:00
3:56 PM,75.9,59.0,56,29.89,10.0,SW,26.5,31.1,N/A,,Overcast,220,2013-04-23 20:56:00
4:56 PM,74.8,57.9,55,29.88,10.0,SSW,18.4,25.3,N/A,,Overcast,210,2013-04-23 21:56:00
5:56 PM,73.9,57.9,57,29.88,10.0,SW,13.8,-,N/A,,Overcast,220,2013-04-23 22:56:00
6:56 PM,73.9,57.9,57,29.88,10.0,SW,13.8,-,N/A,,Overcast,220,2013-04-23 23:56:00
7:56 PM,70.0,59.9,70,29.88,10.0,SSW,8.1,-,N/A,,Overcast,200,2013-04-24 00:56:00
8:56 PM,66.9,59.9,78,29.89,10.0,South,9.2,-,N/A,,Overcast,190,2013-04-24 01:56:00
9:56 PM,66.9,59.9,78,29.91,10.0,SSW,8.1,-,N/A,,Overcast,210,2013-04-24 02:56:00
10:22 PM,64.4,55.4,73,29.95,10.0,NW,25.3,29.9,N/A,,Overcast,320,2013-04-24 03:22:00
10:56 PM,54.0,47.8,80,29.97,10.0,NW,23.0,26.5,N/A,,Mostly Cloudy,320,2013-04-24 03:56:00
11:56 PM,50.0,43.0,77,29.99,10.0,NW,16.1,-,N/A,,Overcast,310,2013-04-24 04:56:00